sensor_id;sensor_type;location;lat;lon;timestamp;P1;durP1;ratioP1;P2;durP2;ratioP2
56171;SDS011;42052;41.634;-0.946;2022-11-15T00:02:18;6.13;;;3.20;;
56171;SDS011;42052;41.634;-0.946;2022-11-15T00:05:04;5.90;;;3.05;;
56171;SDS011;42052;41.634;-0.946;2022-11-15T00:07:50;5.35;;;3.00;;
56171;SDS011;42052;41.634;-0.946;2022-11-15T00:10:36;5.68;;;3.10;;
56171;SDS011;42052;41.634;-0.946;2022-11-15T00:13:23;6.13;;;3.20;;
56171;SDS011;42052;41.634;-0.946;2022-11-15T00:16:09;5.05;;;3.17;;
56171;SDS011;42052;41.634;-0.946;2022-11-15T00:18:56;4.57;;;2.60;;
56171;SDS011;42052;41.634;-0.946;2022-11-15T00:21:43;6.15;;;3.13;;
56171;SDS011;42052;41.634;-0.946;2022-11-15T00:24:29;5.75;;;3.05;;
56171;SDS011;42052;41.634;-0.946;2022-11-15T00:27:15;5.70;;;2.78;;
56171;SDS011;42052;41.634;-0.946;2022-11-15T00:30:01;4.97;;;2.90;;
56171;SDS011;42052;41.634;-0.946;2022-11-15T00:32:48;5.57;;;2.80;;
56171;SDS011;42052;41.634;-0.946;2022-11-15T00:35:34;4.50;;;2.53;;
56171;SDS011;42052;41.634;-0.946;2022-11-15T00:38:20;4.22;;;2.47;;
56171;SDS011;42052;41.634;-0.946;2022-11-15T00:41:07;5.53;;;2.78;;
56171;SDS011;42052;41.634;-0.946;2022-11-15T00:43:53;4.18;;;2.53;;
56171;SDS011;42052;41.634;-0.946;2022-11-15T00:46:39;4.53;;;2.90;;
56171;SDS011;42052;41.634;-0.946;2022-11-15T00:49:25;6.03;;;2.67;;
56171;SDS011;42052;41.634;-0.946;2022-11-15T00:52:11;5.55;;;2.42;;
56171;SDS011;42052;41.634;-0.946;2022-11-15T00:54:57;4.65;;;2.70;;
56171;SDS011;42052;41.634;-0.946;2022-11-15T00:57:44;4.43;;;2.50;;
56171;SDS011;42052;41.634;-0.946;2022-11-15T01:00:31;5.03;;;2.92;;
56171;SDS011;42052;41.634;-0.946;2022-11-15T01:03:17;4.22;;;2.58;;
56171;SDS011;42052;41.634;-0.946;2022-11-15T01:06:03;4.88;;;2.40;;
56171;SDS011;42052;41.634;-0.946;2022-11-15T01:08:50;4.38;;;2.22;;
56171;SDS011;42052;41.634;-0.946;2022-11-15T01:11:36;4.40;;;2.53;;
56171;SDS011;42052;41.634;-0.946;2022-11-15T01:14:22;4.15;;;2.60;;
56171;SDS011;42052;41.634;-0.946;2022-11-15T01:17:08;4.65;;;2.38;;
56171;SDS011;42052;41.634;-0.946;2022-11-15T01:19:54;5.32;;;2.30;;
56171;SDS011;42052;41.634;-0.946;2022-11-15T01:22:40;5.95;;;2.50;;
56171;SDS011;42052;41.634;-0.946;2022-11-15T01:25:26;4.15;;;2.38;;
56171;SDS011;42052;41.634;-0.946;2022-11-15T01:28:12;4.30;;;2.28;;
56171;SDS011;42052;41.634;-0.946;2022-11-15T01:30:59;4.65;;;2.40;;
56171;SDS011;42052;41.634;-0.946;2022-11-15T01:33:46;4.03;;;2.42;;
56171;SDS011;42052;41.634;-0.946;2022-11-15T01:36:33;3.97;;;2.25;;
56171;SDS011;42052;41.634;-0.946;2022-11-15T01:39:19;5.07;;;2.35;;
56171;SDS011;42052;41.634;-0.946;2022-11-15T01:42:05;4.45;;;2.33;;
56171;SDS011;42052;41.634;-0.946;2022-11-15T01:44:54;4.15;;;2.20;;
56171;SDS011;42052;41.634;-0.946;2022-11-15T01:47:41;4.68;;;2.13;;
56171;SDS011;42052;41.634;-0.946;2022-11-15T01:50:30;4.45;;;2.60;;
56171;SDS011;42052;41.634;-0.946;2022-11-15T01:53:18;3.67;;;2.30;;
56171;SDS011;42052;41.634;-0.946;2022-11-15T01:56:09;4.38;;;2.50;;
56171;SDS011;42052;41.634;-0.946;2022-11-15T01:58:59;4.45;;;2.47;;
56171;SDS011;42052;41.634;-0.946;2022-11-15T02:01:49;2.72;;;2.08;;
56171;SDS011;42052;41.634;-0.946;2022-11-15T02:04:38;5.10;;;2.30;;
56171;SDS011;42052;41.634;-0.946;2022-11-15T02:07:30;3.55;;;2.10;;
56171;SDS011;42052;41.634;-0.946;2022-11-15T02:10:20;3.92;;;2.30;;
56171;SDS011;42052;41.634;-0.946;2022-11-15T02:13:08;2.85;;;2.10;;
56171;SDS011;42052;41.634;-0.946;2022-11-15T02:16:04;4.25;;;2.10;;
56171;SDS011;42052;41.634;-0.946;2022-11-15T02:45:22;2.95;;;2.13;;
56171;SDS011;42052;41.634;-0.946;2022-11-15T02:48:12;3.15;;;2.13;;
56171;SDS011;42052;41.634;-0.946;2022-11-15T02:51:00;4.18;;;2.15;;
56171;SDS011;42052;41.634;-0.946;2022-11-15T02:53:47;4.05;;;2.50;;
56171;SDS011;42052;41.634;-0.946;2022-11-15T02:56:33;3.10;;;2.20;;
56171;SDS011;42052;41.634;-0.946;2022-11-15T02:59:23;3.15;;;2.50;;
56171;SDS011;42052;41.634;-0.946;2022-11-15T03:02:26;3.67;;;2.17;;
56171;SDS011;42052;41.634;-0.946;2022-11-15T03:05:37;2.90;;;2.10;;
56171;SDS011;42052;41.634;-0.946;2022-11-15T03:09:22;3.75;;;2.25;;
56171;SDS011;42052;41.634;-0.946;2022-11-15T03:12:11;3.97;;;2.25;;
56171;SDS011;42052;41.634;-0.946;2022-11-15T03:15:09;3.67;;;2.35;;
56171;SDS011;42052;41.634;-0.946;2022-11-15T03:18:03;3.45;;;2.10;;
56171;SDS011;42052;41.634;-0.946;2022-11-15T03:20:55;3.83;;;2.35;;
56171;SDS011;42052;41.634;-0.946;2022-11-15T03:23:45;3.65;;;2.25;;
56171;SDS011;42052;41.634;-0.946;2022-11-15T03:26:34;3.15;;;2.30;;
56171;SDS011;42052;41.634;-0.946;2022-11-15T03:29:23;3.30;;;2.15;;
56171;SDS011;42052;41.634;-0.946;2022-11-15T03:32:15;4.53;;;2.10;;
56171;SDS011;42052;41.634;-0.946;2022-11-15T03:38:03;3.83;;;2.15;;
56171;SDS011;42052;41.634;-0.946;2022-11-15T03:41:01;2.55;;;2.08;;
56171;SDS011;42052;41.634;-0.946;2022-11-15T03:44:04;3.70;;;2.58;;
56171;SDS011;42052;41.634;-0.946;2022-11-15T03:46:56;3.75;;;2.40;;
56171;SDS011;42052;41.634;-0.946;2022-11-15T03:49:55;2.95;;;2.10;;
56171;SDS011;42052;41.634;-0.946;2022-11-15T03:52:48;3.30;;;2.50;;
56171;SDS011;42052;41.634;-0.946;2022-11-15T03:55:35;3.85;;;2.00;;
56171;SDS011;42052;41.634;-0.946;2022-11-15T03:58:21;4.35;;;2.30;;
56171;SDS011;42052;41.634;-0.946;2022-11-15T04:01:07;3.67;;;2.20;;
56171;SDS011;42052;41.634;-0.946;2022-11-15T04:03:53;4.05;;;2.40;;
56171;SDS011;42052;41.634;-0.946;2022-11-15T04:06:39;3.15;;;2.13;;
56171;SDS011;42052;41.634;-0.946;2022-11-15T04:09:26;4.55;;;2.20;;
56171;SDS011;42052;41.634;-0.946;2022-11-15T04:12:12;2.33;;;1.75;;
56171;SDS011;42052;41.634;-0.946;2022-11-15T04:14:59;3.08;;;2.20;;
56171;SDS011;42052;41.634;-0.946;2022-11-15T04:17:54;3.50;;;2.33;;
56171;SDS011;42052;41.634;-0.946;2022-11-15T04:20:41;2.20;;;1.80;;
56171;SDS011;42052;41.634;-0.946;2022-11-15T04:23:46;2.33;;;2.00;;
56171;SDS011;42052;41.634;-0.946;2022-11-15T04:26:52;4.53;;;2.20;;
56171;SDS011;42052;41.634;-0.946;2022-11-15T04:29:38;3.53;;;2.00;;
56171;SDS011;42052;41.634;-0.946;2022-11-15T04:32:24;3.15;;;2.20;;
56171;SDS011;42052;41.634;-0.946;2022-11-15T04:35:10;2.65;;;2.00;;
56171;SDS011;42052;41.634;-0.946;2022-11-15T04:37:57;4.13;;;2.10;;
56171;SDS011;42052;41.634;-0.946;2022-11-15T04:40:43;3.05;;;2.10;;
56171;SDS011;42052;41.634;-0.946;2022-11-15T04:43:30;2.53;;;1.92;;
56171;SDS011;42052;41.634;-0.946;2022-11-15T04:46:16;2.38;;;1.98;;
56171;SDS011;42052;41.634;-0.946;2022-11-15T04:49:02;3.72;;;2.13;;
56171;SDS011;42052;41.634;-0.946;2022-11-15T04:51:48;2.75;;;1.95;;
56171;SDS011;42052;41.634;-0.946;2022-11-15T04:54:34;3.22;;;1.80;;
56171;SDS011;42052;41.634;-0.946;2022-11-15T04:57:20;2.60;;;1.90;;
56171;SDS011;42052;41.634;-0.946;2022-11-15T05:00:08;2.90;;;1.95;;
56171;SDS011;42052;41.634;-0.946;2022-11-15T05:02:56;3.53;;;2.00;;
56171;SDS011;42052;41.634;-0.946;2022-11-15T05:06:01;2.17;;;1.65;;
56171;SDS011;42052;41.634;-0.946;2022-11-15T05:08:48;2.88;;;1.98;;
56171;SDS011;42052;41.634;-0.946;2022-11-15T05:11:34;3.53;;;1.95;;
56171;SDS011;42052;41.634;-0.946;2022-11-15T05:14:20;3.17;;;1.73;;
56171;SDS011;42052;41.634;-0.946;2022-11-15T05:17:06;2.80;;;1.70;;
56171;SDS011;42052;41.634;-0.946;2022-11-15T05:19:52;3.28;;;1.70;;
56171;SDS011;42052;41.634;-0.946;2022-11-15T05:22:39;1.85;;;1.50;;
56171;SDS011;42052;41.634;-0.946;2022-11-15T05:25:25;2.80;;;1.75;;
56171;SDS011;42052;41.634;-0.946;2022-11-15T05:28:12;2.88;;;1.70;;
56171;SDS011;42052;41.634;-0.946;2022-11-15T05:31:05;3.20;;;1.90;;
56171;SDS011;42052;41.634;-0.946;2022-11-15T05:34:01;2.28;;;1.60;;
56171;SDS011;42052;41.634;-0.946;2022-11-15T05:36:50;2.50;;;1.70;;
56171;SDS011;42052;41.634;-0.946;2022-11-15T05:39:36;2.25;;;1.63;;
56171;SDS011;42052;41.634;-0.946;2022-11-15T05:42:22;2.85;;;1.60;;
56171;SDS011;42052;41.634;-0.946;2022-11-15T05:45:10;2.13;;;1.70;;
56171;SDS011;42052;41.634;-0.946;2022-11-15T05:47:57;2.88;;;1.70;;
56171;SDS011;42052;41.634;-0.946;2022-11-15T05:50:46;3.00;;;1.67;;
56171;SDS011;42052;41.634;-0.946;2022-11-15T05:53:33;3.35;;;1.40;;
56171;SDS011;42052;41.634;-0.946;2022-11-15T05:56:21;2.50;;;1.58;;
56171;SDS011;42052;41.634;-0.946;2022-11-15T05:59:07;2.78;;;1.60;;
56171;SDS011;42052;41.634;-0.946;2022-11-15T06:01:54;4.30;;;1.42;;
56171;SDS011;42052;41.634;-0.946;2022-11-15T06:04:41;1.80;;;1.60;;
56171;SDS011;42052;41.634;-0.946;2022-11-15T06:07:28;3.00;;;1.60;;
56171;SDS011;42052;41.634;-0.946;2022-11-15T06:10:15;1.92;;;1.48;;
56171;SDS011;42052;41.634;-0.946;2022-11-15T06:13:02;1.90;;;1.55;;
56171;SDS011;42052;41.634;-0.946;2022-11-15T06:15:49;1.70;;;1.20;;
56171;SDS011;42052;41.634;-0.946;2022-11-15T06:18:36;3.90;;;1.42;;
56171;SDS011;42052;41.634;-0.946;2022-11-15T06:21:22;2.45;;;1.60;;
56171;SDS011;42052;41.634;-0.946;2022-11-15T06:24:08;5.65;;;2.05;;
56171;SDS011;42052;41.634;-0.946;2022-11-15T06:26:54;6.28;;;2.15;;
56171;SDS011;42052;41.634;-0.946;2022-11-15T06:29:41;11.25;;;2.75;;
56171;SDS011;42052;41.634;-0.946;2022-11-15T06:32:28;12.68;;;2.58;;
56171;SDS011;42052;41.634;-0.946;2022-11-15T06:35:15;16.52;;;3.60;;
56171;SDS011;42052;41.634;-0.946;2022-11-15T06:38:06;15.40;;;3.17;;
56171;SDS011;42052;41.634;-0.946;2022-11-15T06:40:53;11.55;;;3.30;;
56171;SDS011;42052;41.634;-0.946;2022-11-15T06:43:40;12.20;;;3.33;;
56171;SDS011;42052;41.634;-0.946;2022-11-15T06:46:26;13.38;;;3.60;;
56171;SDS011;42052;41.634;-0.946;2022-11-15T06:49:12;13.75;;;3.65;;
56171;SDS011;42052;41.634;-0.946;2022-11-15T06:51:58;17.52;;;3.80;;
56171;SDS011;42052;41.634;-0.946;2022-11-15T06:54:45;12.73;;;3.60;;
56171;SDS011;42052;41.634;-0.946;2022-11-15T06:57:31;16.58;;;4.47;;
56171;SDS011;42052;41.634;-0.946;2022-11-15T07:00:18;20.70;;;4.90;;
56171;SDS011;42052;41.634;-0.946;2022-11-15T07:03:05;15.70;;;4.22;;
56171;SDS011;42052;41.634;-0.946;2022-11-15T07:05:55;20.05;;;4.70;;
56171;SDS011;42052;41.634;-0.946;2022-11-15T07:08:42;14.73;;;4.57;;
56171;SDS011;42052;41.634;-0.946;2022-11-15T07:11:29;22.92;;;4.55;;
56171;SDS011;42052;41.634;-0.946;2022-11-15T07:14:15;18.35;;;4.60;;
56171;SDS011;42052;41.634;-0.946;2022-11-15T07:17:03;16.67;;;4.07;;
56171;SDS011;42052;41.634;-0.946;2022-11-15T07:19:50;14.93;;;4.20;;
56171;SDS011;42052;41.634;-0.946;2022-11-15T07:22:36;14.38;;;4.10;;
56171;SDS011;42052;41.634;-0.946;2022-11-15T07:25:22;16.65;;;4.50;;
56171;SDS011;42052;41.634;-0.946;2022-11-15T07:28:08;14.80;;;4.45;;
56171;SDS011;42052;41.634;-0.946;2022-11-15T07:30:55;14.38;;;4.25;;
56171;SDS011;42052;41.634;-0.946;2022-11-15T07:33:41;14.77;;;4.55;;
56171;SDS011;42052;41.634;-0.946;2022-11-15T07:36:27;16.42;;;4.70;;
56171;SDS011;42052;41.634;-0.946;2022-11-15T07:39:13;13.32;;;4.07;;
56171;SDS011;42052;41.634;-0.946;2022-11-15T07:42:00;15.27;;;4.20;;
56171;SDS011;42052;41.634;-0.946;2022-11-15T07:45:05;15.45;;;4.30;;
56171;SDS011;42052;41.634;-0.946;2022-11-15T07:47:51;14.02;;;4.30;;
56171;SDS011;42052;41.634;-0.946;2022-11-15T07:50:40;12.23;;;4.03;;
56171;SDS011;42052;41.634;-0.946;2022-11-15T07:53:27;13.57;;;4.20;;
56171;SDS011;42052;41.634;-0.946;2022-11-15T07:56:13;12.05;;;4.10;;
56171;SDS011;42052;41.634;-0.946;2022-11-15T07:58:59;11.27;;;3.97;;
56171;SDS011;42052;41.634;-0.946;2022-11-15T08:01:46;10.98;;;3.90;;
56171;SDS011;42052;41.634;-0.946;2022-11-15T08:04:32;10.93;;;3.60;;
56171;SDS011;42052;41.634;-0.946;2022-11-15T08:07:18;11.52;;;3.70;;
56171;SDS011;42052;41.634;-0.946;2022-11-15T08:10:05;8.80;;;3.40;;
56171;SDS011;42052;41.634;-0.946;2022-11-15T08:13:03;10.82;;;4.30;;
56171;SDS011;42052;41.634;-0.946;2022-11-15T08:15:51;10.90;;;3.70;;
56171;SDS011;42052;41.634;-0.946;2022-11-15T08:18:37;11.52;;;3.70;;
56171;SDS011;42052;41.634;-0.946;2022-11-15T08:21:23;12.52;;;4.00;;
56171;SDS011;42052;41.634;-0.946;2022-11-15T08:24:10;8.15;;;3.42;;
56171;SDS011;42052;41.634;-0.946;2022-11-15T08:26:56;12.80;;;3.53;;
56171;SDS011;42052;41.634;-0.946;2022-11-15T08:29:42;14.65;;;3.60;;
56171;SDS011;42052;41.634;-0.946;2022-11-15T08:32:30;11.60;;;3.72;;
56171;SDS011;42052;41.634;-0.946;2022-11-15T08:35:16;8.40;;;3.42;;
56171;SDS011;42052;41.634;-0.946;2022-11-15T08:38:03;9.82;;;3.53;;
56171;SDS011;42052;41.634;-0.946;2022-11-15T08:40:53;9.40;;;3.28;;
56171;SDS011;42052;41.634;-0.946;2022-11-15T08:43:45;8.35;;;3.80;;
56171;SDS011;42052;41.634;-0.946;2022-11-15T08:46:31;8.85;;;2.95;;
56171;SDS011;42052;41.634;-0.946;2022-11-15T08:49:17;7.85;;;2.88;;
56171;SDS011;42052;41.634;-0.946;2022-11-15T08:52:03;12.15;;;3.40;;
56171;SDS011;42052;41.634;-0.946;2022-11-15T08:54:49;9.23;;;3.30;;
56171;SDS011;42052;41.634;-0.946;2022-11-15T08:57:36;7.13;;;3.10;;
56171;SDS011;42052;41.634;-0.946;2022-11-15T09:00:22;10.57;;;3.25;;
56171;SDS011;42052;41.634;-0.946;2022-11-15T09:03:08;11.77;;;3.25;;
56171;SDS011;42052;41.634;-0.946;2022-11-15T09:05:58;7.70;;;3.17;;
56171;SDS011;42052;41.634;-0.946;2022-11-15T09:08:45;7.45;;;3.15;;
56171;SDS011;42052;41.634;-0.946;2022-11-15T09:11:31;9.18;;;3.28;;
56171;SDS011;42052;41.634;-0.946;2022-11-15T09:14:17;8.18;;;3.17;;
56171;SDS011;42052;41.634;-0.946;2022-11-15T09:17:06;8.43;;;3.13;;
56171;SDS011;42052;41.634;-0.946;2022-11-15T09:19:53;8.95;;;3.20;;
56171;SDS011;42052;41.634;-0.946;2022-11-15T09:22:40;7.45;;;2.70;;
56171;SDS011;42052;41.634;-0.946;2022-11-15T09:25:26;8.10;;;3.03;;
56171;SDS011;42052;41.634;-0.946;2022-11-15T09:28:13;7.13;;;2.80;;
56171;SDS011;42052;41.634;-0.946;2022-11-15T09:31:01;6.68;;;2.80;;
56171;SDS011;42052;41.634;-0.946;2022-11-15T09:33:49;8.30;;;3.45;;
56171;SDS011;42052;41.634;-0.946;2022-11-15T09:36:35;7.18;;;3.03;;
56171;SDS011;42052;41.634;-0.946;2022-11-15T09:39:21;5.82;;;2.80;;
56171;SDS011;42052;41.634;-0.946;2022-11-15T09:45:26;5.82;;;3.03;;
56171;SDS011;42052;41.634;-0.946;2022-11-15T09:48:42;8.27;;;3.10;;
56171;SDS011;42052;41.634;-0.946;2022-11-15T09:51:39;5.93;;;2.88;;
56171;SDS011;42052;41.634;-0.946;2022-11-15T09:54:36;6.65;;;2.92;;
56171;SDS011;42052;41.634;-0.946;2022-11-15T09:57:31;6.80;;;2.75;;
56171;SDS011;42052;41.634;-0.946;2022-11-15T10:00:28;6.05;;;2.90;;
56171;SDS011;42052;41.634;-0.946;2022-11-15T10:03:34;6.18;;;2.90;;
56171;SDS011;42052;41.634;-0.946;2022-11-15T10:06:23;5.57;;;2.75;;
56171;SDS011;42052;41.634;-0.946;2022-11-15T10:09:13;7.32;;;2.70;;
56171;SDS011;42052;41.634;-0.946;2022-11-15T10:12:04;6.25;;;2.55;;
56171;SDS011;42052;41.634;-0.946;2022-11-15T10:14:55;6.35;;;2.65;;
56171;SDS011;42052;41.634;-0.946;2022-11-15T10:20:57;7.25;;;2.95;;
56171;SDS011;42052;41.634;-0.946;2022-11-15T10:23:45;7.13;;;2.60;;
56171;SDS011;42052;41.634;-0.946;2022-11-15T10:26:31;6.25;;;2.80;;
56171;SDS011;42052;41.634;-0.946;2022-11-15T10:29:18;5.57;;;2.60;;
56171;SDS011;42052;41.634;-0.946;2022-11-15T10:32:05;5.65;;;2.97;;
56171;SDS011;42052;41.634;-0.946;2022-11-15T10:34:51;5.47;;;2.42;;
56171;SDS011;42052;41.634;-0.946;2022-11-15T10:37:37;6.32;;;2.63;;
56171;SDS011;42052;41.634;-0.946;2022-11-15T10:40:24;5.43;;;2.60;;
56171;SDS011;42052;41.634;-0.946;2022-11-15T10:45:56;4.97;;;2.67;;
56171;SDS011;42052;41.634;-0.946;2022-11-15T10:49:27;5.53;;;2.50;;
56171;SDS011;42052;41.634;-0.946;2022-11-15T10:52:16;5.25;;;2.40;;
56171;SDS011;42052;41.634;-0.946;2022-11-15T10:58:01;6.07;;;2.45;;
56171;SDS011;42052;41.634;-0.946;2022-11-15T11:01:15;4.57;;;2.28;;
56171;SDS011;42052;41.634;-0.946;2022-11-15T11:04:08;4.88;;;2.35;;
56171;SDS011;42052;41.634;-0.946;2022-11-15T11:09:45;4.72;;;2.60;;
56171;SDS011;42052;41.634;-0.946;2022-11-15T11:12:42;5.75;;;2.58;;
56171;SDS011;42052;41.634;-0.946;2022-11-15T11:15:28;4.68;;;2.38;;
56171;SDS011;42052;41.634;-0.946;2022-11-15T11:18:20;5.47;;;2.47;;
56171;SDS011;42052;41.634;-0.946;2022-11-15T11:21:31;6.47;;;2.30;;
56171;SDS011;42052;41.634;-0.946;2022-11-15T11:33:44;5.93;;;2.42;;
56171;SDS011;42052;41.634;-0.946;2022-11-15T11:36:49;4.53;;;2.28;;
56171;SDS011;42052;41.634;-0.946;2022-11-15T11:42:54;5.75;;;2.67;;
56171;SDS011;42052;41.634;-0.946;2022-11-15T11:45:51;4.50;;;2.20;;
56171;SDS011;42052;41.634;-0.946;2022-11-15T11:52:05;5.30;;;2.22;;
56171;SDS011;42052;41.634;-0.946;2022-11-15T12:04:19;5.22;;;2.38;;
56171;SDS011;42052;41.634;-0.946;2022-11-15T12:07:17;4.22;;;2.53;;
56171;SDS011;42052;41.634;-0.946;2022-11-15T12:10:14;4.07;;;2.40;;
56171;SDS011;42052;41.634;-0.946;2022-11-15T12:13:09;5.18;;;2.50;;
56171;SDS011;42052;41.634;-0.946;2022-11-15T12:16:02;3.78;;;2.40;;
56171;SDS011;42052;41.634;-0.946;2022-11-15T12:18:57;3.45;;;2.17;;
56171;SDS011;42052;41.634;-0.946;2022-11-15T12:24:43;7.80;;;2.65;;
56171;SDS011;42052;41.634;-0.946;2022-11-15T12:27:47;3.53;;;2.20;;
56171;SDS011;42052;41.634;-0.946;2022-11-15T12:30:54;3.67;;;2.30;;
56171;SDS011;42052;41.634;-0.946;2022-11-15T12:33:47;4.18;;;2.47;;
56171;SDS011;42052;41.634;-0.946;2022-11-15T12:36:35;4.15;;;2.22;;
56171;SDS011;42052;41.634;-0.946;2022-11-15T12:45:51;5.32;;;2.17;;
56171;SDS011;42052;41.634;-0.946;2022-11-15T13:00:35;4.88;;;2.17;;
56171;SDS011;42052;41.634;-0.946;2022-11-15T13:03:16;5.78;;;2.50;;
56171;SDS011;42052;41.634;-0.946;2022-11-15T13:06:09;5.68;;;2.40;;
56171;SDS011;42052;41.634;-0.946;2022-11-15T13:09:51;3.08;;;1.90;;
56171;SDS011;42052;41.634;-0.946;2022-11-15T13:18:27;3.20;;;2.10;;
56171;SDS011;42052;41.634;-0.946;2022-11-15T13:21:24;3.85;;;1.92;;
56171;SDS011;42052;41.634;-0.946;2022-11-15T13:24:29;3.25;;;1.85;;
56171;SDS011;42052;41.634;-0.946;2022-11-15T13:27:15;2.58;;;1.90;;
56171;SDS011;42052;41.634;-0.946;2022-11-15T13:30:04;3.08;;;1.98;;
56171;SDS011;42052;41.634;-0.946;2022-11-15T13:32:51;5.35;;;2.30;;
56171;SDS011;42052;41.634;-0.946;2022-11-15T13:35:38;3.42;;;2.10;;
56171;SDS011;42052;41.634;-0.946;2022-11-15T13:38:30;3.25;;;2.08;;
56171;SDS011;42052;41.634;-0.946;2022-11-15T13:41:20;4.55;;;2.20;;
56171;SDS011;42052;41.634;-0.946;2022-11-15T13:44:18;3.70;;;1.98;;
56171;SDS011;42052;41.634;-0.946;2022-11-15T13:47:14;3.95;;;2.40;;
56171;SDS011;42052;41.634;-0.946;2022-11-15T13:50:05;3.20;;;2.00;;
56171;SDS011;42052;41.634;-0.946;2022-11-15T13:52:57;2.92;;;1.95;;
56171;SDS011;42052;41.634;-0.946;2022-11-15T13:55:45;4.07;;;2.20;;
56171;SDS011;42052;41.634;-0.946;2022-11-15T13:58:31;4.15;;;2.03;;
56171;SDS011;42052;41.634;-0.946;2022-11-15T14:01:19;5.40;;;2.10;;
56171;SDS011;42052;41.634;-0.946;2022-11-15T14:04:10;4.78;;;2.33;;
56171;SDS011;42052;41.634;-0.946;2022-11-15T14:06:59;5.38;;;2.15;;
56171;SDS011;42052;41.634;-0.946;2022-11-15T14:09:48;3.17;;;2.10;;
56171;SDS011;42052;41.634;-0.946;2022-11-15T14:12:35;3.72;;;2.10;;
56171;SDS011;42052;41.634;-0.946;2022-11-15T14:15:31;3.28;;;2.03;;
56171;SDS011;42052;41.634;-0.946;2022-11-15T14:21:35;3.25;;;1.77;;
56171;SDS011;42052;41.634;-0.946;2022-11-15T14:24:21;4.40;;;2.20;;
56171;SDS011;42052;41.634;-0.946;2022-11-15T14:27:17;3.22;;;2.10;;
56171;SDS011;42052;41.634;-0.946;2022-11-15T14:30:15;4.85;;;1.77;;
56171;SDS011;42052;41.634;-0.946;2022-11-15T14:33:11;3.63;;;1.80;;
56171;SDS011;42052;41.634;-0.946;2022-11-15T14:36:20;3.58;;;2.00;;
56171;SDS011;42052;41.634;-0.946;2022-11-15T14:39:07;4.25;;;2.10;;
56171;SDS011;42052;41.634;-0.946;2022-11-15T14:41:53;4.25;;;1.73;;
56171;SDS011;42052;41.634;-0.946;2022-11-15T14:44:39;4.07;;;1.88;;
56171;SDS011;42052;41.634;-0.946;2022-11-15T14:47:26;3.85;;;1.77;;
56171;SDS011;42052;41.634;-0.946;2022-11-15T14:50:21;4.43;;;1.80;;
56171;SDS011;42052;41.634;-0.946;2022-11-15T14:53:11;3.33;;;1.80;;
56171;SDS011;42052;41.634;-0.946;2022-11-15T14:55:58;3.90;;;1.98;;
56171;SDS011;42052;41.634;-0.946;2022-11-15T14:58:44;2.38;;;1.50;;
56171;SDS011;42052;41.634;-0.946;2022-11-15T15:01:30;2.60;;;1.70;;
56171;SDS011;42052;41.634;-0.946;2022-11-15T15:04:17;3.60;;;2.08;;
56171;SDS011;42052;41.634;-0.946;2022-11-15T15:07:03;3.50;;;1.90;;
56171;SDS011;42052;41.634;-0.946;2022-11-15T15:09:50;3.17;;;1.70;;
56171;SDS011;42052;41.634;-0.946;2022-11-15T15:12:36;2.47;;;1.80;;
56171;SDS011;42052;41.634;-0.946;2022-11-15T15:15:26;3.10;;;1.70;;
56171;SDS011;42052;41.634;-0.946;2022-11-15T15:18:19;2.10;;;1.60;;
56171;SDS011;42052;41.634;-0.946;2022-11-15T15:21:15;2.55;;;1.77;;
56171;SDS011;42052;41.634;-0.946;2022-11-15T15:24:05;2.53;;;1.60;;
56171;SDS011;42052;41.634;-0.946;2022-11-15T15:26:53;3.65;;;1.80;;
56171;SDS011;42052;41.634;-0.946;2022-11-15T15:29:39;3.65;;;1.77;;
56171;SDS011;42052;41.634;-0.946;2022-11-15T15:32:26;2.00;;;1.52;;
56171;SDS011;42052;41.634;-0.946;2022-11-15T15:35:12;3.42;;;1.67;;
56171;SDS011;42052;41.634;-0.946;2022-11-15T15:38:00;2.53;;;1.60;;
56171;SDS011;42052;41.634;-0.946;2022-11-15T15:40:46;2.95;;;1.77;;
56171;SDS011;42052;41.634;-0.946;2022-11-15T15:43:32;2.83;;;1.70;;
56171;SDS011;42052;41.634;-0.946;2022-11-15T15:46:19;3.10;;;1.67;;
56171;SDS011;42052;41.634;-0.946;2022-11-15T15:49:07;3.05;;;1.50;;
56171;SDS011;42052;41.634;-0.946;2022-11-15T15:51:55;2.33;;;1.52;;
56171;SDS011;42052;41.634;-0.946;2022-11-15T15:54:41;2.38;;;1.45;;
56171;SDS011;42052;41.634;-0.946;2022-11-15T15:57:27;1.83;;;1.40;;
56171;SDS011;42052;41.634;-0.946;2022-11-15T16:00:13;1.85;;;1.63;;
56171;SDS011;42052;41.634;-0.946;2022-11-15T16:03:00;2.60;;;1.50;;
56171;SDS011;42052;41.634;-0.946;2022-11-15T16:05:46;2.90;;;1.63;;
56171;SDS011;42052;41.634;-0.946;2022-11-15T16:08:32;2.90;;;1.55;;
56171;SDS011;42052;41.634;-0.946;2022-11-15T16:11:18;2.45;;;1.60;;
56171;SDS011;42052;41.634;-0.946;2022-11-15T16:14:04;2.75;;;1.50;;
56171;SDS011;42052;41.634;-0.946;2022-11-15T16:16:50;2.38;;;1.70;;
56171;SDS011;42052;41.634;-0.946;2022-11-15T16:19:37;2.25;;;1.42;;
56171;SDS011;42052;41.634;-0.946;2022-11-15T16:22:23;2.20;;;1.50;;
56171;SDS011;42052;41.634;-0.946;2022-11-15T16:25:09;2.85;;;1.60;;
56171;SDS011;42052;41.634;-0.946;2022-11-15T16:27:55;2.63;;;1.60;;
56171;SDS011;42052;41.634;-0.946;2022-11-15T16:30:41;1.75;;;1.42;;
56171;SDS011;42052;41.634;-0.946;2022-11-15T16:33:27;1.70;;;1.40;;
56171;SDS011;42052;41.634;-0.946;2022-11-15T16:39:12;1.88;;;1.38;;
56171;SDS011;42052;41.634;-0.946;2022-11-15T16:41:59;2.15;;;1.30;;
56171;SDS011;42052;41.634;-0.946;2022-11-15T16:44:45;2.10;;;1.50;;
56171;SDS011;42052;41.634;-0.946;2022-11-15T16:47:31;2.72;;;1.35;;
56171;SDS011;42052;41.634;-0.946;2022-11-15T16:50:27;2.45;;;1.33;;
56171;SDS011;42052;41.634;-0.946;2022-11-15T16:53:15;2.75;;;1.52;;
56171;SDS011;42052;41.634;-0.946;2022-11-15T16:56:02;2.92;;;1.70;;
56171;SDS011;42052;41.634;-0.946;2022-11-15T16:58:48;2.25;;;1.42;;
56171;SDS011;42052;41.634;-0.946;2022-11-15T17:01:35;2.88;;;1.50;;
56171;SDS011;42052;41.634;-0.946;2022-11-15T17:04:31;2.17;;;1.30;;
56171;SDS011;42052;41.634;-0.946;2022-11-15T17:07:18;2.90;;;1.40;;
56171;SDS011;42052;41.634;-0.946;2022-11-15T17:10:04;1.63;;;1.10;;
56171;SDS011;42052;41.634;-0.946;2022-11-15T17:12:51;1.65;;;1.48;;
56171;SDS011;42052;41.634;-0.946;2022-11-15T17:15:40;2.83;;;1.40;;
56171;SDS011;42052;41.634;-0.946;2022-11-15T17:18:26;1.70;;;1.40;;
56171;SDS011;42052;41.634;-0.946;2022-11-15T17:21:13;1.90;;;1.52;;
56171;SDS011;42052;41.634;-0.946;2022-11-15T17:24:01;1.77;;;1.20;;
56171;SDS011;42052;41.634;-0.946;2022-11-15T17:26:47;1.98;;;1.42;;
56171;SDS011;42052;41.634;-0.946;2022-11-15T17:29:33;2.25;;;1.30;;
56171;SDS011;42052;41.634;-0.946;2022-11-15T17:32:19;2.72;;;1.48;;
56171;SDS011;42052;41.634;-0.946;2022-11-15T17:35:06;2.35;;;1.30;;
56171;SDS011;42052;41.634;-0.946;2022-11-15T17:37:53;2.70;;;1.38;;
56171;SDS011;42052;41.634;-0.946;2022-11-15T17:40:40;1.30;;;1.20;;
56171;SDS011;42052;41.634;-0.946;2022-11-15T17:43:26;3.33;;;1.65;;
56171;SDS011;42052;41.634;-0.946;2022-11-15T17:46:16;1.60;;;1.20;;
56171;SDS011;42052;41.634;-0.946;2022-11-15T17:49:04;4.63;;;1.40;;
56171;SDS011;42052;41.634;-0.946;2022-11-15T17:51:50;1.73;;;1.30;;
56171;SDS011;42052;41.634;-0.946;2022-11-15T17:54:37;1.92;;;1.20;;
56171;SDS011;42052;41.634;-0.946;2022-11-15T17:57:23;2.28;;;1.30;;
56171;SDS011;42052;41.634;-0.946;2022-11-15T18:00:09;1.48;;;1.20;;
56171;SDS011;42052;41.634;-0.946;2022-11-15T18:02:56;2.42;;;1.10;;
56171;SDS011;42052;41.634;-0.946;2022-11-15T18:05:42;1.63;;;1.17;;
56171;SDS011;42052;41.634;-0.946;2022-11-15T18:08:28;1.27;;;1.17;;
56171;SDS011;42052;41.634;-0.946;2022-11-15T18:11:16;1.55;;;1.20;;
56171;SDS011;42052;41.634;-0.946;2022-11-15T18:14:09;1.45;;;1.17;;
56171;SDS011;42052;41.634;-0.946;2022-11-15T18:16:58;2.47;;;1.38;;
56171;SDS011;42052;41.634;-0.946;2022-11-15T18:19:44;2.13;;;1.27;;
56171;SDS011;42052;41.634;-0.946;2022-11-15T18:22:32;3.08;;;1.20;;
56171;SDS011;42052;41.634;-0.946;2022-11-15T18:25:18;1.85;;;1.15;;
56171;SDS011;42052;41.634;-0.946;2022-11-15T18:28:04;1.65;;;1.10;;